Pagina principale
Immagini satellite Previsioni 15 giorniClimaMeteomar Cicloni Fulmine AeroportiFAQ Bollettino Informazioni
Tempo : Europa Africa America settentrionale America meridionale Asia Australia-Oceania Altri
Lingue Contatto

Genova, Italia

Sestri

latitudine: 44-25N, longitudine: 008-51E, altezza: 2 m


METAR: LIMJ 230620Z 03007KT 9999 BKN018 13/10 Q1025
TAF: LIMJ 230500Z 2306/2406 03008KT 7000 BKN030

Ora: 07:57 (06:57 UTC)

Osservazione

Il bollettino è stato emesso 37 minuti fa, alle 06:20 UTC
Vento 7 kt da nord/nord-est
Temperature 13°C
Umidità 82%
Pressione 1025 hPa
Visibilità 10 km o più
Nuvoloso ad un'altezza di 1800 ft

Cambiare le unità

Previsione

Il bollettino è stato emesso 1 ora e 57 minuti fa, alle 05:00 UTC
Previsione valida dal 23 alle 06 UTC al 24 alle 06 UTC
Vento 8 kt da nord/nord-est
Visibilità: 7000 m
Nuvoloso ad un'altezza di 3000 ft
Le informazioni contenute in questo sito formano oggetto di una clausola di esclusione di responsabilità
Tempo : Europa Africa America settentrionale America meridionale Asia Australia-Oceania Altri
Immagini satellite Previsioni 15 giorniClimaMeteomar Cicloni Fulmine AeroportiFAQ Lingue Contatto Bollettino Informazioni